createdAt,value
2022-12-17T00:04:45.140Z,11.96
2022-12-17T00:10:05.067Z,11.96
2022-12-17T00:20:43.606Z,11.96
2022-12-17T00:26:02.949Z,11.96
2022-12-17T00:32:37.192Z,11.96
2022-12-17T00:36:43.456Z,11.96
2022-12-17T00:42:03.356Z,11.95
2022-12-17T00:47:22.868Z,11.96
2022-12-17T00:52:41.822Z,11.96
2022-12-17T00:58:01.087Z,11.95
2022-12-17T01:03:20.878Z,11.95
2022-12-17T01:08:40.554Z,11.94
2022-12-17T01:13:58.821Z,11.94
2022-12-17T01:19:17.895Z,11.95
2022-12-17T01:24:37.499Z,11.94
2022-12-17T01:29:57.048Z,11.94
2022-12-17T01:35:16.787Z,11.95
2022-12-17T01:40:36.627Z,11.94
2022-12-17T01:45:55.999Z,11.94
2022-12-17T01:51:15.459Z,11.94
2022-12-17T01:56:35.009Z,11.94
2022-12-17T02:01:54.377Z,11.94
2022-12-17T02:12:32.922Z,11.94
2022-12-17T02:17:52.207Z,11.93
2022-12-17T02:23:11.327Z,11.94
2022-12-17T02:28:30.774Z,11.93
2022-12-17T02:33:50.199Z,11.92
2022-12-17T02:39:09.783Z,11.93
2022-12-17T02:44:29.524Z,11.93
2022-12-17T02:49:48.936Z,11.93
2022-12-17T02:55:08.544Z,11.92
2022-12-17T03:00:27.878Z,11.92
2022-12-17T03:05:47.078Z,11.93
2022-12-17T03:11:06.340Z,11.92
2022-12-17T03:16:25.715Z,11.92
2022-12-17T03:21:44.739Z,11.92
2022-12-17T03:27:03.967Z,11.92
2022-12-17T03:32:23.167Z,11.92
2022-12-17T03:37:42.736Z,11.92
2022-12-17T03:43:02.631Z,11.92
2022-12-17T03:48:21.746Z,11.92
2022-12-17T03:53:40.830Z,11.92
2022-12-17T03:59:00.528Z,11.91
2022-12-17T04:04:20.305Z,11.92
2022-12-17T04:14:59.350Z,11.91
2022-12-17T04:20:18.792Z,11.91
2022-12-17T04:25:38.705Z,11.9
2022-12-17T04:30:58.197Z,11.91
2022-12-17T04:36:18.033Z,11.9
2022-12-17T04:41:37.654Z,11.91
2022-12-17T04:46:57.117Z,11.9
2022-12-17T04:57:35.689Z,11.9
2022-12-17T05:02:55.634Z,11.89
2022-12-17T05:08:14.849Z,11.91
2022-12-17T05:13:34.556Z,11.9
2022-12-17T05:18:53.392Z,11.89
2022-12-17T05:24:13.119Z,11.9
2022-12-17T05:29:32.864Z,11.9
2022-12-17T05:34:52.021Z,11.9
2022-12-17T05:40:12.781Z,11.89
2022-12-17T05:45:31.340Z,11.89
2022-12-17T05:50:50.628Z,11.89
2022-12-17T05:56:10.355Z,11.89
2022-12-17T06:01:29.637Z,11.88
2022-12-17T06:06:48.743Z,11.89
2022-12-17T06:12:08.050Z,11.89
2022-12-17T06:22:47.027Z,11.89
2022-12-17T06:29:21.267Z,11.87
2022-12-17T06:33:27.035Z,11.88
2022-12-17T06:38:44.896Z,11.88
2022-12-17T06:44:04.564Z,11.88
2022-12-17T06:49:24.017Z,11.88
2022-12-17T06:54:43.691Z,11.87
2022-12-17T07:05:22.866Z,11.88
2022-12-17T07:10:42.269Z,11.88
2022-12-17T07:16:12.933Z,11.88
2022-12-17T07:21:21.106Z,11.88
2022-12-17T07:26:39.931Z,11.9
2022-12-17T07:31:59.557Z,11.93
2022-12-17T07:37:20.557Z,12.01
2022-12-17T07:47:57.285Z,12.19
2022-12-17T07:58:35.828Z,12.47
2022-12-17T08:04:04.110Z,12.62
2022-12-17T08:09:14.935Z,12.74
2022-12-17T08:14:34.356Z,12.86
2022-12-17T08:19:53.718Z,12.95
2022-12-17T08:25:13.297Z,13.04
2022-12-17T08:30:32.806Z,13.09
2022-12-17T08:35:52.219Z,13.14
2022-12-17T08:41:12.099Z,13.17
2022-12-17T08:46:31.556Z,13.2
2022-12-17T08:53:05.646Z,13.22
2022-12-17T08:57:11.579Z,13.23
2022-12-17T09:02:30.677Z,13.25
2022-12-17T09:07:49.985Z,13.26
2022-12-17T09:13:09.689Z,13.26
2022-12-17T09:18:28.551Z,13.28
2022-12-17T09:23:48.065Z,13.29
2022-12-17T09:29:07.278Z,13.28
2022-12-17T09:34:26.501Z,13.29
2022-12-17T09:39:45.724Z,13.28
2022-12-17T09:45:05.146Z,13.28
2022-12-17T09:55:43.457Z,13.28
2022-12-17T10:01:02.909Z,13.28
2022-12-17T10:06:22.708Z,13.28
2022-12-17T10:11:42.099Z,13.28
2022-12-17T10:17:00.867Z,13.3
2022-12-17T10:22:20.178Z,13.29
2022-12-17T10:27:39.404Z,13.28
2022-12-17T10:32:58.711Z,13.29
2022-12-17T10:38:17.828Z,13.3
2022-12-17T10:43:37.006Z,13.3
2022-12-17T10:48:56.465Z,13.3
2022-12-17T10:54:15.732Z,13.31
2022-12-17T10:59:35.419Z,13.3
2022-12-17T11:04:54.677Z,13.31
2022-12-17T11:10:14.491Z,13.31
2022-12-17T11:18:47.500Z,13.31
2022-12-17T11:20:53.355Z,13.32
2022-12-17T11:26:13.065Z,13.33
2022-12-17T11:31:32.406Z,13.33
2022-12-17T11:36:51.702Z,13.33
2022-12-17T11:42:11.507Z,13.34
2022-12-17T11:47:30.028Z,13.34
2022-12-17T11:58:07.188Z,13.35
2022-12-17T12:03:26.274Z,13.36
2022-12-17T12:14:04.924Z,13.37
2022-12-17T12:19:50.290Z,13.36
2022-12-17T12:30:28.572Z,13.39
2022-12-17T12:35:47.508Z,13.39
2022-12-17T12:41:06.731Z,13.4
2022-12-17T12:46:26.447Z,13.4
2022-12-17T12:51:45.065Z,13.4
2022-12-17T12:57:04.495Z,13.4
2022-12-17T13:02:24.220Z,13.4
2022-12-17T13:07:43.757Z,13.4
2022-12-17T13:13:03.179Z,13.4
2022-12-17T13:18:22.600Z,13.4
2022-12-17T13:29:01.308Z,13.4
2022-12-17T13:34:20.439Z,13.39
2022-12-17T13:39:40.417Z,13.39
2022-12-17T13:44:59.726Z,13.38
2022-12-17T13:50:35.419Z,13.37
2022-12-17T13:55:38.249Z,13.36
2022-12-17T14:00:58.091Z,13.34
2022-12-17T14:06:17.077Z,13.33
2022-12-17T14:11:36.532Z,13.32
2022-12-17T14:16:55.418Z,13.3
2022-12-17T14:22:14.569Z,13.28
2022-12-17T14:27:34.012Z,13.26
2022-12-17T14:32:53.480Z,13.23
2022-12-17T14:38:26.051Z,13.2
2022-12-17T14:43:32.067Z,13.16
2022-12-17T14:48:51.766Z,13.12
2022-12-17T14:54:10.542Z,13.07
2022-12-17T14:59:29.599Z,13
2022-12-17T15:04:48.994Z,12.88
2022-12-17T15:10:08.136Z,12.83
2022-12-17T15:15:27.853Z,12.8
2022-12-17T15:20:46.165Z,12.78
2022-12-17T15:26:05.978Z,12.77
2022-12-17T15:31:26.792Z,12.74
2022-12-17T15:36:44.082Z,12.74
2022-12-17T15:42:03.697Z,12.73
2022-12-17T15:47:22.664Z,12.72
2022-12-17T15:52:41.872Z,12.72
2022-12-17T15:58:00.900Z,12.72
2022-12-17T16:03:20.793Z,12.71
2022-12-17T16:08:40.174Z,12.7
2022-12-17T16:13:59.383Z,12.7
2022-12-17T16:19:18.892Z,12.7
2022-12-17T16:24:38.408Z,12.69
2022-12-17T16:29:57.380Z,12.68
2022-12-17T16:35:16.645Z,12.68
2022-12-17T16:40:35.808Z,12.68
2022-12-17T16:45:55.424Z,12.68
2022-12-17T16:51:14.765Z,12.66
2022-12-17T16:56:39.613Z,12.67
2022-12-17T17:01:53.461Z,12.66
2022-12-17T17:07:12.657Z,12.66
2022-12-17T17:12:32.587Z,12.65
2022-12-17T17:17:55.227Z,12.65
2022-12-17T17:23:11.244Z,12.64
2022-12-17T17:28:30.630Z,12.64
2022-12-17T17:33:49.533Z,12.64
2022-12-17T17:39:08.571Z,12.63
2022-12-17T17:44:27.522Z,12.63
2022-12-17T17:49:47.215Z,12.62
2022-12-17T17:55:07.005Z,12.62
2022-12-17T18:00:25.907Z,12.62
2022-12-17T18:05:45.012Z,12.62
2022-12-17T18:11:04.606Z,12.61
2022-12-17T18:21:43.198Z,12.6
2022-12-17T18:27:03.042Z,12.6
2022-12-17T18:32:22.384Z,12.6
2022-12-17T18:37:42.108Z,12.6
2022-12-17T18:43:01.577Z,12.6
2022-12-17T18:48:21.257Z,12.59
2022-12-17T18:53:40.181Z,12.59
2022-12-17T19:04:18.061Z,12.58
2022-12-17T19:09:37.874Z,12.58
2022-12-17T19:14:57.461Z,12.58
2022-12-17T19:20:16.814Z,12.58
2022-12-17T19:25:35.762Z,12.57
2022-12-17T19:30:55.027Z,12.57
2022-12-17T19:37:29.206Z,12.57
2022-12-17T19:46:55.312Z,12.56
2022-12-17T19:52:14.490Z,12.56
2022-12-17T19:57:32.792Z,12.56
2022-12-17T20:02:52.273Z,12.56
2022-12-17T20:08:11.092Z,12.55
2022-12-17T20:13:30.089Z,12.55
2022-12-17T20:18:49.243Z,12.55
2022-12-17T20:24:08.530Z,12.55
2022-12-17T20:29:27.790Z,12.54
2022-12-17T20:34:46.995Z,12.55
2022-12-17T20:40:06.746Z,12.54
2022-12-17T20:45:26.502Z,12.54
2022-12-17T20:56:05.449Z,12.53
2022-12-17T21:01:25.219Z,12.54
2022-12-17T21:06:44.198Z,12.53
2022-12-17T21:12:03.277Z,12.53
2022-12-17T21:17:22.963Z,12.53
2022-12-17T21:22:42.062Z,12.53
2022-12-17T21:28:01.695Z,12.52
2022-12-17T21:33:20.374Z,12.52
2022-12-17T21:38:40.114Z,12.52
2022-12-17T21:43:59.802Z,12.52
2022-12-17T21:49:19.239Z,12.52
2022-12-17T21:54:38.439Z,12.51
2022-12-17T21:59:58.555Z,12.51
2022-12-17T22:05:17.895Z,12.51
2022-12-17T22:10:43.292Z,12.52
2022-12-17T22:15:57.099Z,12.5
2022-12-17T22:21:16.474Z,12.51
2022-12-17T22:26:35.852Z,12.5
2022-12-17T22:31:55.205Z,12.51
2022-12-17T22:39:16.949Z,12.51
2022-12-17T22:43:20.901Z,12.5
2022-12-17T22:47:54.498Z,12.5
2022-12-17T22:53:14.120Z,12.5
2022-12-17T22:58:33.109Z,12.5
2022-12-17T23:03:52.891Z,12.49
2022-12-17T23:09:11.747Z,12.5
2022-12-17T23:14:30.813Z,12.49
2022-12-17T23:19:50.256Z,12.49
2022-12-17T23:25:09.870Z,12.48
2022-12-17T23:30:28.135Z,12.5
2022-12-17T23:41:06.643Z,12.49
2022-12-17T23:46:26.602Z,12.48
2022-12-17T23:51:45.590Z,12.49
2022-12-17T23:57:04.650Z,12.48
